WAMI/TLI METAR and TAF weather

Enter ICAO airport designator
Station Type Date Time Source
WAMI METAR UTC NOAA

Error!


Station Type Date Time Source
WAMI Decoded METAR UTC NOAA

Error!

Station Type Date Time Source
WAMI TAF 2014/05/01 06:33 UTC NOAA

TAF WAMI 010500Z 0106/0118 31006KT 9000 SCT020
BECMG 0109/0111 09003KT 7000 FEW020


Example: see airport list